Time;durP1;ratioP1;P1;durP2;ratioP2;P2;SDS_P1;SDS_P2;PMS_P1;PMS_P2;Temp;Humidity;BMP_temperature;BMP_pressure;BME280_temperature;BME280_humidity;BME280_pressure;Samples;Min_cycle;Max_cycle;Signal;HPM_P1;HPM_P2
2022/01/28 00:01:43;;;;;;;1.38;0.90;;;;;;;17.43;44.01;102706.50;5103623;28;20057;-49
2022/01/28 00:04:13;;;;;;;1.88;0.70;;;;;;;17.43;44.10;102709.22;5097197;28;20511;-45
2022/01/28 00:06:39;;;;;;;0.70;0.70;;;;;;;17.33;43.89;102688.47;5099411;28;20070;-50
2022/01/28 00:09:05;;;;;;;1.77;0.98;;;;;;;17.43;43.84;102711.03;5103536;28;20028;-51
2022/01/28 00:11:30;;;;;;;0.80;0.80;;;;;;;17.39;43.80;102713.09;5099103;28;20039;-47
2022/01/28 00:14:07;;;;;;;1.05;0.93;;;;;;;17.43;43.91;102732.56;5099727;28;20063;-51
2022/01/28 00:17:21;;;;;;;0.85;0.60;;;;;;;17.41;43.83;102721.03;5100133;28;20016;-48
2022/01/28 00:38:55;;;;;;;1.55;0.90;;;;;;;17.31;43.85;102747.75;5024773;28;20107;-47
2022/01/28 00:41:21;;;;;;;0.82;0.82;;;;;;;17.30;43.60;102743.34;5026756;28;20037;-45
2022/01/28 00:43:46;;;;;;;1.23;0.80;;;;;;;17.31;43.58;102754.97;5023381;28;20617;-49
2022/01/28 00:46:12;;;;;;;1.42;1.02;;;;;;;17.31;43.62;102757.66;5022934;28;20042;-46
2022/01/28 00:48:37;;;;;;;2.35;0.90;;;;;;;17.30;43.53;102762.19;5020516;28;20033;-46
2022/01/28 00:51:02;;;;;;;1.70;0.98;;;;;;;17.29;43.63;102751.50;5024153;28;20719;-49
2022/01/28 00:53:27;;;;;;;1.25;0.80;;;;;;;17.27;43.58;102762.41;5028185;28;20049;-48
2022/01/28 00:55:54;;;;;;;1.42;0.82;;;;;;;17.27;43.70;102758.84;5021814;28;20049;-48
2022/01/28 00:58:20;;;;;;;1.10;0.82;;;;;;;17.24;43.63;102751.84;5040500;28;20069;-45
2022/01/28 01:00:45;;;;;;;2.60;0.95;;;;;;;17.25;43.42;102767.03;5084358;28;20071;-47
2022/01/28 01:03:10;;;;;;;1.58;1.10;;;;;;;17.24;43.41;102763.47;5099668;28;20218;-47
2022/01/28 01:05:36;;;;;;;0.80;0.80;;;;;;;17.26;43.57;102767.91;5081130;28;20055;-47
2022/01/28 01:08:02;;;;;;;1.42;0.88;;;;;;;17.25;43.42;102772.41;5102296;28;20068;-46
2022/01/28 01:10:28;;;;;;;1.05;0.88;;;;;;;17.20;43.45;102775.44;5102125;28;20169;-47
2022/01/28 01:12:53;;;;;;;2.03;1.05;;;;;;;17.22;43.46;102786.94;5096309;28;20028;-48
2022/01/28 01:15:22;;;;;;;1.65;0.80;;;;;;;17.19;43.38;102779.06;5099956;28;20068;-49
2022/01/28 01:17:59;;;;;;;1.58;0.90;;;;;;;17.19;43.48;102786.28;5102446;28;20100;-47
2022/01/28 01:23:04;;;;;;;1.45;0.98;;;;;;;17.18;43.46;102787.25;5078902;28;20028;-47
2022/01/28 01:25:29;;;;;;;1.75;0.80;;;;;;;17.19;43.37;102795.22;5081697;28;20046;-49
2022/01/28 01:27:57;;;;;;;1.33;0.80;;;;;;;17.18;43.47;102795.34;5102167;28;20035;-49
2022/01/28 01:30:25;;;;;;;1.05;0.90;;;;;;;17.19;43.42;102805.09;5098533;28;20533;-48
2022/01/28 01:32:51;;;;;;;0.88;0.70;;;;;;;17.16;43.25;102797.25;5101654;28;20066;-47
2022/01/28 01:35:16;;;;;;;2.90;0.90;;;;;;;17.16;43.28;102808.88;5100238;28;20025;-49
2022/01/28 01:37:41;;;;;;;2.63;1.00;;;;;;;17.16;43.25;102819.66;5102696;28;20028;-50
2022/01/28 01:40:07;;;;;;;1.70;0.93;;;;;;;17.15;43.38;102831.34;5095581;28;20028;-47
2022/01/28 01:53:17;;;;;;;1.17;0.82;;;;;;;17.11;43.13;102861.25;5104462;28;20043;-48
2022/01/28 01:55:43;;;;;;;2.13;1.10;;;;;;;17.13;43.13;102865.56;5103278;28;20028;-49
2022/01/28 01:58:08;;;;;;;2.35;0.98;;;;;;;17.14;43.07;102861.03;5103722;28;20087;-46
2022/01/28 02:00:33;;;;;;;1.80;0.90;;;;;;;17.09;43.17;102850.59;5085932;28;20024;-50
2022/01/28 02:02:58;;;;;;;1.08;0.80;;;;;;;17.11;43.00;102862.09;5103948;28;20024;-49
2022/01/28 02:05:24;;;;;;;1.52;0.82;;;;;;;17.12;43.12;102863.84;5103028;28;20088;-48
2022/01/28 02:07:49;;;;;;;2.63;1.13;;;;;;;17.12;43.01;102871.00;5079048;28;20024;-50
2022/01/28 02:10:15;;;;;;;1.55;0.88;;;;;;;17.10;43.04;102870.28;5081501;28;20521;-49
2022/01/28 02:12:44;;;;;;;1.55;1.05;;;;;;;17.11;43.08;102866.63;5081363;28;20055;-49
2022/01/28 02:15:10;;;;;;;1.23;0.93;;;;;;;17.09;42.94;102869.41;5083333;28;20028;-47
2022/01/28 02:17:35;;;;;;;1.10;0.95;;;;;;;17.09;43.09;102872.09;5083134;28;20629;-48
2022/01/28 02:20:00;;;;;;;1.25;0.90;;;;;;;17.08;43.15;102882.97;5092441;28;20039;-48
2022/01/28 02:22:26;;;;;;;2.25;1.05;;;;;;;17.08;42.90;102891.03;5085556;28;20044;-49
2022/01/28 02:24:51;;;;;;;1.92;1.00;;;;;;;17.07;42.98;102887.47;5103434;28;20050;-50
2022/01/28 02:27:17;;;;;;;2.67;1.10;;;;;;;17.07;42.88;102889.31;5102936;28;20028;-46
2022/01/28 02:29:44;;;;;;;2.08;0.90;;;;;;;17.08;42.90;102893.72;5103473;28;20028;-46
2022/01/28 02:32:09;;;;;;;1.40;0.90;;;;;;;17.09;43.18;102898.13;5103482;28;20027;-47
2022/01/28 02:34:37;;;;;;;0.85;0.80;;;;;;;17.04;42.85;102890.41;5085104;28;20055;-46
2022/01/28 02:37:03;;;;;;;2.42;1.05;;;;;;;17.05;42.81;102899.31;5102852;28;20476;-48
2022/01/28 02:39:28;;;;;;;1.92;1.10;;;;;;;17.03;42.82;102894.03;5100503;28;20047;-48
2022/01/28 02:42:01;;;;;;;1.52;1.10;;;;;;;17.03;42.86;102899.41;5082532;28;20021;-48
2022/01/28 02:47:14;;;;;;;2.47;1.02;;;;;;;17.02;43.02;102907.59;5083064;28;20043;-50
2022/01/28 02:49:40;;;;;;;1.65;0.90;;;;;;;17.02;42.75;102896.84;5089050;28;20047;-47
2022/01/28 02:52:05;;;;;;;2.35;1.30;;;;;;;17.00;42.86;102907.69;5103259;28;20067;-50
2022/01/28 02:54:34;;;;;;;1.92;1.10;;;;;;;17.00;42.73;102910.38;5085359;28;20036;-46
2022/01/28 02:57:03;;;;;;;1.42;0.90;;;;;;;16.98;42.90;102905.09;5102670;28;20035;-48
2022/01/28 02:59:29;;;;;;;1.38;0.90;;;;;;;16.98;42.76;102910.47;5103324;28;20031;-47
2022/01/28 03:01:54;;;;;;;1.45;1.00;;;;;;;16.93;42.67;102909.94;5085135;28;20095;-50
2022/01/28 03:04:49;;;;;;;2.13;1.13;;;;;;;16.99;42.73;102919.38;5102637;28;20076;-47
2022/01/28 03:07:05;;;;;;;1.67;0.90;;;;;;;16.98;42.67;102926.59;5102722;28;20028;-48
2022/01/28 03:09:48;;;;;;;1.67;0.98;;;;;;;16.97;42.74;102930.25;5103259;28;20031;-50
2022/01/28 03:12:17;;;;;;;2.30;1.20;;;;;;;16.93;42.81;102927.91;5087153;28;20024;-49
2022/01/28 03:17:50;;;;;;;2.35;0.93;;;;;;;16.90;42.67;102928.94;5103350;28;20047;-51
2022/01/28 03:22:44;;;;;;;1.13;0.90;;;;;;;16.93;42.77;102927.91;5107324;28;20024;-45
2022/01/28 03:25:10;;;;;;;2.35;1.20;;;;;;;16.92;42.75;102945.00;5088394;28;20031;-50
2022/01/28 03:27:51;;;;;;;2.28;1.35;;;;;;;16.92;42.70;102943.16;5106367;28;20028;-50
2022/01/28 03:30:16;;;;;;;3.33;1.30;;;;;;;16.91;42.78;102933.38;5106865;28;20024;-48
2022/01/28 03:32:42;;;;;;;1.60;0.98;;;;;;;16.91;42.73;102941.44;5106727;28;20050;-49
2022/01/28 03:35:09;;;;;;;1.10;0.80;;;;;;;16.90;42.54;102936.16;5106312;28;20533;-49
2022/01/28 03:37:34;;;;;;;1.42;0.98;;;;;;;16.89;42.70;102946.06;5106244;28;20043;-46
2022/01/28 03:40:01;;;;;;;1.85;1.02;;;;;;;16.88;42.59;102949.72;5106528;28;20036;-47
2022/01/28 03:42:26;;;;;;;1.00;0.80;;;;;;;16.89;42.63;102959.47;5106131;28;20028;-49
2022/01/28 03:44:51;;;;;;;1.30;1.00;;;;;;;16.89;42.53;102964.84;5106385;28;20077;-48
2022/01/28 03:47:16;;;;;;;1.58;0.95;;;;;;;16.87;42.64;102964.13;5106500;28;20024;-51
2022/01/28 03:49:42;;;;;;;1.50;0.90;;;;;;;16.89;42.67;102961.31;5105563;28;20020;-49
2022/01/28 03:52:07;;;;;;;2.35;1.20;;;;;;;16.88;42.47;102968.53;5106254;28;20042;-49
2022/01/28 03:54:32;;;;;;;2.13;1.30;;;;;;;16.87;42.66;102977.56;5106146;28;20028;-51
2022/01/28 03:56:57;;;;;;;2.53;1.20;;;;;;;16.87;42.63;102968.63;5105470;28;20051;-48
2022/01/28 03:59:23;;;;;;;1.10;0.93;;;;;;;16.87;42.62;102982.06;5105931;28;20028;-48
2022/01/28 04:01:49;;;;;;;1.35;0.90;;;;;;;16.83;42.67;102978.72;5106308;28;20032;-48
2022/01/28 04:12:47;;;;;;;0.95;0.80;;;;;;;16.83;42.70;102996.66;5032405;28;20157;-52
2022/01/28 04:15:35;;;;;;;1.10;0.90;;;;;;;16.82;42.66;102992.25;5042935;28;20025;-47
2022/01/28 04:18:01;;;;;;;1.95;1.00;;;;;;;16.77;42.65;102991.69;5042755;28;20033;-49
2022/01/28 04:20:26;;;;;;;1.85;1.10;;;;;;;16.82;42.65;103011.03;5042129;28;20056;-50
2022/01/28 04:22:51;;;;;;;0.90;0.90;;;;;;;16.82;42.54;102994.94;5042802;28;20443;-46
2022/01/28 04:25:16;;;;;;;1.20;0.95;;;;;;;16.80;42.79;102995.03;5041859;28;20041;-48
2022/01/28 04:27:42;;;;;;;1.65;1.23;;;;;;;16.80;42.61;102995.03;5042632;28;20039;-47
2022/01/28 04:30:07;;;;;;;1.10;1.00;;;;;;;16.81;42.60;103006.66;5042495;28;20064;-46
2022/01/28 04:32:34;;;;;;;1.48;0.95;;;;;;;16.80;42.77;102997.72;5042213;28;20025;-50
2022/01/28 04:34:59;;;;;;;1.00;1.00;;;;;;;16.79;42.54;102998.69;5042312;28;20033;-47
2022/01/28 04:45:18;;;;;;;2.20;0.90;;;;;;;16.78;42.63;103020.28;5083887;28;21919;-48
2022/01/28 04:50:39;;;;;;;1.55;1.00;;;;;;;16.76;42.98;103023.06;5082630;28;20115;-46
2022/01/28 04:56:11;;;;;;;1.13;0.80;;;;;;;16.76;43.01;103033.81;5104349;28;20028;-50
2022/01/28 05:07:44;;;;;;;0.98;0.90;;;;;;;16.72;42.64;103034.97;5104534;28;20035;-49
2022/01/28 05:23:19;;;;;;;2.55;1.00;;;;;;;16.72;42.72;103043.00;5021869;28;20283;-51
2022/01/28 05:28:12;;;;;;;2.95;1.35;;;;;;;16.69;43.00;103060.22;5021681;28;20022;-49
2022/01/28 05:30:37;;;;;;;2.20;1.10;;;;;;;16.69;42.56;103059.31;5021927;28;20022;-47
2022/01/28 05:33:02;;;;;;;1.73;0.90;;;;;;;16.69;42.80;103062.00;5036493;28;20521;-48
2022/01/28 05:35:27;;;;;;;1.65;1.05;;;;;;;16.68;42.73;103069.22;5040869;28;20030;-52
2022/01/28 05:37:53;;;;;;;1.58;0.85;;;;;;;16.68;42.67;103081.78;5041035;28;20037;-47
2022/01/28 05:40:18;;;;;;;1.55;1.00;;;;;;;16.68;42.81;103079.09;5040664;28;20029;-49
2022/01/28 05:42:43;;;;;;;1.33;0.90;;;;;;;16.67;42.79;103080.06;5040715;28;20033;-49
2022/01/28 05:45:08;;;;;;;1.17;1.00;;;;;;;16.67;42.90;103082.75;5041134;28;20045;-53
2022/01/28 05:47:36;;;;;;;1.65;1.00;;;;;;;16.67;42.86;103093.50;5040752;28;20025;-50
2022/01/28 05:50:03;;;;;;;1.20;0.93;;;;;;;16.66;42.71;103089.09;5025240;28;20076;-51
2022/01/28 05:52:30;;;;;;;1.60;1.00;;;;;;;16.66;42.99;103095.31;5069769;28;20033;-51
2022/01/28 05:54:55;;;;;;;2.38;1.15;;;;;;;16.64;42.83;103093.69;5083702;28;20037;-48
2022/01/28 05:57:21;;;;;;;1.48;0.90;;;;;;;16.64;42.87;103097.25;5083267;28;20127;-48
2022/01/28 05:59:46;;;;;;;1.73;1.00;;;;;;;16.64;42.90;103105.28;5083597;28;20024;-50
2022/01/28 06:02:11;;;;;;;1.23;0.90;;;;;;;16.64;42.76;103107.13;5083738;28;20066;-47
2022/01/28 06:04:37;;;;;;;2.38;1.25;;;;;;;16.63;42.95;103108.94;5082387;28;20044;-47
2022/01/28 06:07:03;;;;;;;2.03;1.05;;;;;;;16.64;42.89;103112.50;5081613;28;20033;-48
2022/01/28 06:09:28;;;;;;;1.23;0.95;;;;;;;16.63;42.89;103114.31;5083479;28;20077;-49
2022/01/28 06:11:53;;;;;;;0.90;0.80;;;;;;;16.63;42.89;103125.06;5082539;28;20036;-51
2022/01/28 06:14:18;;;;;;;1.65;1.00;;;;;;;16.62;42.85;103122.50;5061804;28;20035;-43
2022/01/28 06:16:44;;;;;;;1.45;1.35;;;;;;;16.62;42.85;103119.81;5091009;28;20021;-48
2022/01/28 06:19:09;;;;;;;1.15;0.90;;;;;;;16.62;43.10;103125.19;5092387;28;20042;-46
2022/01/28 06:21:34;;;;;;;1.10;1.00;;;;;;;16.62;43.10;103127.88;5097388;28;20115;-46
2022/01/28 06:23:59;;;;;;;1.70;0.90;;;;;;;16.60;43.19;103138.69;5100221;28;20024;-46
2022/01/28 06:26:25;;;;;;;1.95;1.00;;;;;;;16.64;43.17;103150.94;5078808;28;20020;-48
2022/01/28 06:28:50;;;;;;;1.55;1.00;;;;;;;16.65;42.93;103157.19;5101235;28;20132;-44
2022/01/28 06:31:16;;;;;;;1.60;0.90;;;;;;;16.61;43.23;103150.28;5082114;28;20031;-43
2022/01/28 06:33:41;;;;;;;0.98;0.90;;;;;;;16.65;43.23;103160.75;5077128;28;20027;-49
2022/01/28 06:36:06;;;;;;;0.82;0.80;;;;;;;16.65;43.32;103165.25;5099995;28;20024;-51
2022/01/28 06:38:33;;;;;;;1.33;1.00;;;;;;;16.66;43.21;103167.84;5100539;28;20028;-52
2022/01/28 06:40:58;;;;;;;1.70;0.98;;;;;;;16.65;43.38;103170.63;5098183;28;20036;-50
2022/01/28 06:43:24;;;;;;;1.38;1.00;;;;;;;16.68;43.37;103183.84;5077765;28;20107;-50
2022/01/28 06:45:49;;;;;;;2.47;0.85;;;;;;;16.66;43.41;103181.28;5097731;28;20021;-52
2022/01/28 06:48:16;;;;;;;1.13;0.80;;;;;;;16.69;43.39;103194.53;5073858;28;20027;-50
2022/01/28 06:50:42;;;;;;;0.98;0.70;;;;;;;16.68;43.55;103191.91;5096716;28;20063;-46
2022/01/28 06:53:09;;;;;;;1.40;0.98;;;;;;;16.70;43.51;103195.38;5094612;28;20057;-51
2022/01/28 06:55:35;;;;;;;1.58;0.88;;;;;;;16.71;43.52;103203.34;5097638;28;20358;-46
2022/01/28 06:58:01;;;;;;;2.20;1.10;;;;;;;16.72;43.44;103207.78;5094043;28;20032;-48
2022/01/28 07:00:26;;;;;;;1.60;1.02;;;;;;;16.73;43.56;103208.63;5086404;28;20139;-49
2022/01/28 07:02:51;;;;;;;1.33;0.90;;;;;;;16.73;43.51;103217.53;5100364;28;20071;-49
2022/01/28 07:05:16;;;;;;;2.00;1.05;;;;;;;16.73;43.58;103222.91;5099486;28;20032;-45
2022/01/28 07:07:42;;;;;;;1.85;1.40;;;;;;;16.71;43.74;103214.06;5083040;28;20452;-44
2022/01/28 07:10:08;;;;;;;2.63;1.55;;;;;;;16.82;43.95;103228.66;5102375;28;20032;-47
2022/01/28 07:12:33;;;;;;;3.03;1.48;;;;;;;16.85;43.71;103231.16;5100929;28;20073;-45
2022/01/28 07:14:58;;;;;;;3.75;1.63;;;;;;;16.86;43.69;103223.00;5082891;28;20083;-48
2022/01/28 07:17:23;;;;;;;5.80;1.50;;;;;;;16.90;43.66;103226.34;5084137;28;20070;-50
2022/01/28 07:19:48;;;;;;;3.55;1.15;;;;;;;16.90;43.78;103229.91;5098598;28;20028;-47
2022/01/28 07:22:14;;;;;;;4.85;1.95;;;;;;;16.93;43.58;103239.59;5100487;28;20027;-53
2022/01/28 07:24:39;;;;;;;3.90;1.27;;;;;;;16.92;43.34;103229.81;5095608;28;20543;-50
2022/01/28 07:27:05;;;;;;;3.53;1.50;;;;;;;16.97;43.43;103238.44;5096623;28;20039;-48
2022/01/28 07:29:32;;;;;;;4.15;1.55;;;;;;;16.98;43.60;103254.44;5100864;28;20026;-49
2022/01/28 07:31:58;;;;;;;2.55;1.15;;;;;;;17.00;43.42;103251.69;5098737;28;20047;-50
2022/01/28 07:34:24;;;;;;;2.63;1.23;;;;;;;17.02;43.42;103254.25;5103711;28;20016;-47
2022/01/28 07:36:49;;;;;;;3.78;1.30;;;;;;;17.02;43.40;103246.19;5101737;28;20027;-47
2022/01/28 07:39:14;;;;;;;2.65;1.17;;;;;;;17.03;43.45;103251.47;5101774;28;20099;-51
2022/01/28 07:41:40;;;;;;;3.78;1.48;;;;;;;17.04;43.46;103255.91;5100837;28;20028;-51
2022/01/28 07:44:05;;;;;;;4.15;1.40;;;;;;;17.06;43.43;103263.84;5099427;28;20101;-48
2022/01/28 07:46:30;;;;;;;1.88;1.02;;;;;;;17.05;43.51;103262.13;5095311;28;20024;-50
2022/01/28 07:48:56;;;;;;;3.28;1.45;;;;;;;17.04;43.35;103269.34;5099901;28;20032;-42
2022/01/28 07:51:21;;;;;;;3.85;1.70;;;;;;;17.06;43.45;103263.84;5086418;28;20028;-50
2022/01/28 07:53:46;;;;;;;3.83;1.48;;;;;;;17.07;43.38;103277.19;5106563;28;20027;-48
2022/01/28 07:56:13;;;;;;;2.22;1.00;;;;;;;17.09;43.36;103279.78;5105403;28;20031;-50
2022/01/28 07:58:38;;;;;;;2.78;1.60;;;;;;;17.09;43.30;103286.03;5106213;28;20043;-53
2022/01/28 08:01:04;;;;;;;4.32;1.50;;;;;;;17.09;43.08;103291.41;5105822;28;20032;-49
2022/01/28 08:03:29;;;;;;;4.00;1.58;;;;;;;17.12;43.14;103299.28;5105976;28;20035;-49
2022/01/28 08:05:54;;;;;;;4.68;1.60;;;;;;;17.15;43.11;103301.75;5103965;28;20039;-51
2022/01/28 08:08:21;;;;;;;3.45;2.05;;;;;;;17.16;43.03;103298.13;5105834;28;20092;-51
2022/01/28 08:10:46;;;;;;;4.35;1.40;;;;;;;17.15;42.92;103296.38;5104523;28;20080;-49
2022/01/28 08:13:12;;;;;;;3.13;1.30;;;;;;;17.17;42.96;103293.59;5102314;28;20032;-49
2022/01/28 08:15:39;;;;;;;1.85;1.20;;;;;;;17.21;43.03;103297.81;5104268;28;20016;-52
2022/01/28 08:18:04;;;;;;;2.60;1.25;;;;;;;17.23;43.15;103303.94;5105037;28;20062;-48
2022/01/28 08:20:30;;;;;;;2.72;1.38;;;;;;;17.31;42.89;103311.53;5104612;28;20024;-48
2022/01/28 08:22:57;;;;;;;4.22;1.55;;;;;;;17.33;43.04;103306.88;5104636;28;20039;-49
2022/01/28 08:25:23;;;;;;;4.03;1.40;;;;;;;17.39;42.75;103312.75;5101903;28;20020;-48
2022/01/28 08:27:49;;;;;;;7.00;1.58;;;;;;;17.45;42.74;103325.78;5098865;28;20031;-51
2022/01/28 08:30:16;;;;;;;2.05;1.25;;;;;;;17.46;42.62;103308.69;5102173;28;20028;-48
2022/01/28 08:32:42;;;;;;;3.60;1.40;;;;;;;17.56;42.52;103305.41;5105230;28;20613;-51
2022/01/28 08:35:08;;;;;;;4.60;1.55;;;;;;;17.59;42.41;103314.13;5104118;28;20034;-50
2022/01/28 08:37:33;;;;;;;3.58;1.70;;;;;;;17.63;42.23;103320.19;5104464;28;20020;-51
2022/01/28 08:39:59;;;;;;;2.65;1.50;;;;;;;17.65;42.51;103320.94;5089339;28;20028;-48
2022/01/28 08:42:25;;;;;;;2.17;1.30;;;;;;;17.68;42.03;103329.66;5090956;28;20085;-50
2022/01/28 08:44:50;;;;;;;3.75;1.20;;;;;;;17.71;41.69;103342.91;5104715;28;20286;-48
2022/01/28 08:47:15;;;;;;;2.55;1.30;;;;;;;17.78;41.98;103340.69;5105330;28;20036;-45
2022/01/28 08:49:41;;;;;;;3.22;1.60;;;;;;;17.86;41.94;103334.81;5104199;28;20045;-49
2022/01/28 08:52:06;;;;;;;4.25;1.30;;;;;;;17.96;41.84;103341.28;5100146;28;20104;-48
2022/01/28 08:54:31;;;;;;;3.42;1.33;;;;;;;18.07;41.66;103335.19;5100669;28;20083;-49
2022/01/28 08:56:56;;;;;;;3.35;1.20;;;;;;;18.15;41.31;103333.72;5104056;28;20047;-50
2022/01/28 08:59:22;;;;;;;3.67;1.40;;;;;;;18.28;41.09;103331.03;5103945;28;20016;-49
2022/01/28 09:01:47;;;;;;;3.90;1.30;;;;;;;18.52;40.77;103332.97;5099942;28;20035;-49
2022/01/28 09:04:12;;;;;;;4.93;1.35;;;;;;;18.87;40.17;103342.19;5103573;28;20076;-46
2022/01/28 09:06:37;;;;;;;4.95;1.77;;;;;;;19.22;39.21;103344.16;5103704;28;20054;-52
2022/01/28 09:09:03;;;;;;;4.13;1.65;;;;;;;19.35;39.12;103344.13;5103780;28;20053;-52
2022/01/28 09:11:44;;;;;;;4.38;1.20;;;;;;;19.42;39.11;103342.72;5089883;28;20024;-49
2022/01/28 09:14:09;;;;;;;2.03;1.17;;;;;;;19.75;38.63;103344.75;5091520;28;20036;-50
2022/01/28 09:16:35;;;;;;;2.15;0.80;;;;;;;20.22;37.79;103338.47;5104285;28;20023;-52
2022/01/28 09:19:00;;;;;;;4.32;1.65;;;;;;;20.68;36.97;103342.97;5103704;28;20032;-52
2022/01/28 09:21:25;;;;;;;2.83;1.30;;;;;;;21.15;36.48;103342.88;5103901;28;20035;-49
2022/01/28 09:23:51;;;;;;;2.40;1.10;;;;;;;21.50;35.62;103345.44;5104400;28;20024;-50
2022/01/28 09:26:16;;;;;;;4.07;1.20;;;;;;;21.73;35.01;103356.19;5102899;28;20027;-49
2022/01/28 09:28:42;;;;;;;1.83;0.88;;;;;;;21.73;35.03;103358.91;5100723;28;20107;-52
2022/01/28 09:31:07;;;;;;;2.40;0.93;;;;;;;21.59;34.93;103360.91;5098280;28;20053;-52
2022/01/28 09:33:32;;;;;;;2.28;0.90;;;;;;;21.44;34.90;103371.16;5098238;28;20217;-52
2022/01/28 09:35:57;;;;;;;3.90;1.33;;;;;;;21.34;35.21;103367.47;5097353;28;20079;-49
2022/01/28 09:38:23;;;;;;;3.95;1.30;;;;;;;21.44;35.38;103375.69;5096654;28;20026;-51
2022/01/28 09:40:49;;;;;;;3.22;1.40;;;;;;;21.55;34.72;103375.69;5096757;28;20155;-52
2022/01/28 09:43:14;;;;;;;3.08;1.20;;;;;;;21.54;34.93;103386.66;5089704;28;20085;-51
2022/01/28 09:45:39;;;;;;;3.70;1.00;;;;;;;21.39;35.10;103392.31;5097829;28;20028;-49
2022/01/28 09:48:05;;;;;;;4.13;1.45;;;;;;;21.18;35.31;103391.31;5103590;28;20104;-53
2022/01/28 09:50:32;;;;;;;3.08;1.55;;;;;;;20.89;35.32;103385.53;5102776;28;20504;-47
2022/01/28 09:52:58;;;;;;;3.50;1.73;;;;;;;20.60;36.10;103391.41;5100919;28;20027;-47
2022/01/28 09:55:25;;;;;;;2.03;1.10;;;;;;;20.35;36.11;103389.72;5102969;28;20046;-49
2022/01/28 09:57:52;;;;;;;2.63;1.00;;;;;;;20.12;36.64;103396.84;5103374;28;20024;-49
2022/01/28 10:00:22;;;;;;;4.25;1.40;;;;;;;19.93;37.09;103386.59;5085360;28;20043;-52
2022/01/28 10:02:47;;;;;;;3.15;1.38;;;;;;;19.77;37.40;103399.50;5104240;28;20032;-51
2022/01/28 10:05:27;;;;;;;2.60;1.25;;;;;;;19.64;37.35;103394.16;5102676;28;20065;-48
2022/01/28 10:08:09;;;;;;;3.25;1.05;;;;;;;19.55;37.67;103385.84;5102942;28;20028;-50
2022/01/28 10:10:49;;;;;;;4.22;1.30;;;;;;;19.47;37.72;103381.88;5102554;28;20155;-50
2022/01/28 10:13:34;;;;;;;3.13;1.27;;;;;;;19.42;37.71;103383.19;5095697;28;20016;-50
2022/01/28 10:16:01;;;;;;;3.47;1.33;;;;;;;19.38;38.15;103392.47;5100679;28;20028;-51
2022/01/28 10:18:35;;;;;;;3.25;1.90;;;;;;;19.38;38.10;103392.47;5103641;28;20050;-49
2022/01/28 10:21:01;;;;;;;3.88;1.60;;;;;;;19.37;37.94;103402.41;5084111;28;20028;-51
2022/01/28 10:23:26;;;;;;;3.50;1.30;;;;;;;19.39;38.22;103400.44;5103593;28;20027;-47
2022/01/28 10:25:56;;;;;;;3.17;1.55;;;;;;;19.41;38.08;103405.72;5102426;28;20028;-50
2022/01/28 10:28:22;;;;;;;4.25;1.27;;;;;;;19.43;38.06;103399.25;5103026;28;20043;-48
2022/01/28 10:30:47;;;;;;;4.07;1.40;;;;;;;19.46;37.86;103400.88;5082209;28;20055;-53
2022/01/28 10:33:14;;;;;;;3.05;1.10;;;;;;;19.48;37.96;103407.00;5100736;28;20031;-51
2022/01/28 10:35:48;;;;;;;4.40;1.25;;;;;;;19.47;38.18;103413.41;5102761;28;20031;-51
2022/01/28 10:38:29;;;;;;;3.78;1.42;;;;;;;19.45;38.09;103418.03;5085061;28;20024;-50
2022/01/28 10:41:08;;;;;;;3.58;1.30;;;;;;;19.43;37.84;103414.59;5102618;28;20036;-49
2022/01/28 10:43:43;;;;;;;4.68;1.40;;;;;;;19.41;38.09;103414.72;5103513;28;20035;-50
2022/01/28 10:46:08;;;;;;;4.30;2.05;;;;;;;19.42;38.03;103424.53;5102824;28;20473;-49
2022/01/28 10:48:49;;;;;;;3.38;1.17;;;;;;;19.43;38.13;103419.97;5103070;28;20030;-53
2022/01/28 10:51:14;;;;;;;2.90;1.33;;;;;;;19.39;37.99;103416.63;5102706;28;20032;-51
2022/01/28 10:53:39;;;;;;;4.63;1.17;;;;;;;19.40;37.92;103421.06;5103249;28;20031;-52
2022/01/28 10:56:11;;;;;;;4.28;1.38;;;;;;;19.29;37.77;103402.09;5102281;28;20035;-49
2022/01/28 10:58:37;;;;;;;4.07;1.25;;;;;;;19.38;37.88;103405.97;5103225;28;20040;-50
2022/01/28 11:01:03;;;;;;;3.97;1.25;;;;;;;19.34;37.91;103390.97;5084980;28;20031;-47
2022/01/28 11:03:28;;;;;;;3.20;1.20;;;;;;;19.38;38.13;103400.56;5085267;28;20016;-51
2022/01/28 11:05:57;;;;;;;4.78;1.75;;;;;;;19.38;38.24;103387.09;5102159;28;20393;-51
2022/01/28 11:08:24;;;;;;;3.00;1.65;;;;;;;19.39;37.96;103383.41;5085254;28;20020;-49
2022/01/28 11:10:49;;;;;;;2.72;1.38;;;;;;;19.41;37.85;103379.63;5102142;28;20047;-48
2022/01/28 11:13:14;;;;;;;4.45;2.28;;;;;;;19.43;37.91;103377.69;5084954;28;20106;-48
2022/01/28 11:15:40;;;;;;;4.30;1.48;;;;;;;19.41;38.16;103359.84;5102744;28;20032;-53
2022/01/28 11:18:07;;;;;;;4.50;1.85;;;;;;;19.48;37.86;103372.78;5102895;28;20030;-52
2022/01/28 11:20:51;;;;;;;3.58;1.58;;;;;;;19.50;38.00;103370.00;5083837;28;20053;-49
2022/01/28 11:23:51;;;;;;;6.47;1.92;;;;;;;19.50;37.82;103370.00;5098885;28;20016;-50
2022/01/28 11:26:49;;;;;;;5.88;2.22;;;;;;;19.47;38.23;103371.06;5088318;28;20028;-50
2022/01/28 11:29:20;;;;;;;7.97;2.45;;;;;;;19.44;38.47;103359.66;5065539;28;20040;-53
2022/01/28 11:31:56;;;;;;;5.90;1.90;;;;;;;19.41;38.62;103360.75;5102799;28;20058;-52
2022/01/28 11:34:29;;;;;;;7.30;1.55;;;;;;;19.41;38.76;103359.84;5103045;28;20032;-50
2022/01/28 11:36:59;;;;;;;5.18;1.83;;;;;;;19.43;38.79;103352.53;5101694;28;20063;-51
2022/01/28 11:39:37;;;;;;;6.72;1.77;;;;;;;19.44;38.86;103346.16;5084327;28;20032;-50
2022/01/28 11:42:10;;;;;;;5.97;2.43;;;;;;;19.45;38.78;103339.78;5104088;28;20024;-50
2022/01/28 11:44:49;;;;;;;4.15;1.70;;;;;;;19.46;38.75;103339.69;5100833;28;20028;-48
2022/01/28 11:47:25;;;;;;;4.55;1.48;;;;;;;19.48;38.84;103342.25;5086014;28;20016;-51
2022/01/28 11:50:18;;;;;;;5.40;1.80;;;;;;;19.50;38.68;103343.03;5103440;28;20035;-50
2022/01/28 11:52:48;;;;;;;4.78;1.63;;;;;;;19.52;39.00;103341.06;5078288;28;20036;-53
2022/01/28 11:55:13;;;;;;;5.07;2.00;;;;;;;19.53;38.68;103341.91;5104221;28;20024;-52
2022/01/28 11:57:58;;;;;;;8.48;2.78;;;;;;;19.56;39.17;103341.69;5105576;28;20042;-54
2022/01/28 12:00:25;;;;;;;6.22;2.15;;;;;;;19.57;38.80;103346.97;5105915;28;20028;-51
2022/01/28 12:02:52;;;;;;;7.38;2.00;;;;;;;19.58;39.05;103337.03;5101374;28;20095;-53
2022/01/28 12:05:25;;;;;;;4.95;2.08;;;;;;;19.62;38.93;103341.25;5104670;28;20048;-54
2022/01/28 12:07:50;;;;;;;6.35;1.90;;;;;;;19.60;38.88;103318.91;5105518;28;20529;-51
2022/01/28 12:10:17;;;;;;;6.38;2.08;;;;;;;19.64;38.79;103325.81;5105554;28;20051;-51
2022/01/28 12:12:57;;;;;;;4.80;1.60;;;;;;;19.63;38.64;103322.28;5105981;28;20032;-52
2022/01/28 12:15:24;;;;;;;6.18;2.10;;;;;;;19.65;39.00;103316.75;5105476;28;20055;-48
2022/01/28 12:17:50;;;;;;;5.72;1.98;;;;;;;19.64;38.93;103304.25;5105427;28;20036;-49
2022/01/28 12:20:15;;;;;;;5.30;1.95;;;;;;;19.64;38.71;103306.94;5086812;28;20058;-50
2022/01/28 12:22:59;;;;;;;5.28;1.65;;;;;;;19.64;38.74;103315.03;5105928;28;20036;-50
2022/01/28 12:25:39;;;;;;;7.25;2.28;;;;;;;19.63;38.67;103308.78;5104978;28;20028;-53
2022/01/28 12:28:18;;;;;;;7.22;2.35;;;;;;;19.63;38.72;103303.38;5104907;28;20024;-52
2022/01/28 12:30:58;;;;;;;6.38;1.67;;;;;;;19.62;38.94;103300.78;5085499;28;20060;-52
2022/01/28 12:33:25;;;;;;;4.70;1.70;;;;;;;19.62;38.70;103307.03;5103351;28;20028;-51
2022/01/28 12:35:53;;;;;;;6.82;2.33;;;;;;;19.60;38.92;103300.88;5105034;28;20028;-54
2022/01/28 12:38:25;;;;;;;4.57;1.80;;;;;;;19.57;39.00;103289.44;5105209;28;20365;-51
2022/01/28 12:40:54;;;;;;;6.03;1.95;;;;;;;19.54;39.12;103289.66;5090208;28;20024;-49
2022/01/28 12:43:22;;;;;;;6.15;1.98;;;;;;;19.49;39.07;103287.31;5085339;28;20048;-50
2022/01/28 12:46:00;;;;;;;8.38;2.80;;;;;;;19.47;39.15;103284.75;5099113;28;20035;-50
2022/01/28 12:48:25;;;;;;;4.73;1.50;;;;;;;19.44;39.50;103281.41;5104952;28;20024;-52
2022/01/28 12:50:52;;;;;;;8.07;2.38;;;;;;;19.40;39.49;103277.22;5104167;28;20031;-50
2022/01/28 12:53:54;;;;;;;4.65;1.52;;;;;;;19.41;39.57;103289.72;5104778;28;20060;-47
2022/01/28 12:56:41;;;;;;;4.45;1.73;;;;;;;19.40;39.55;103283.47;5103753;28;20031;-47